This is the latest recevied weather packets stored in our database for station/object NK7E-1. If no packets are shown the sender has not sent any weather packets the latest 1 day(s).
| Time | Temp. | Humidity | Pressure | Rain* | Wind** | Luminosity | Snow |
|---|---|---|---|---|---|---|---|
| 1778096400 | 22.78° C | 28% | 1016.4 hPa | 0 mm | - | - | - |
| 1778095200 | 23.33° C | 28% | 1016.6 hPa | 0 mm | - | - | - |
| 1778091601 | 22.22° C | 31% | 1017.3 hPa | 0 mm | - | - | - |
| 1778089800 | 21.11° C | 33% | 1017.5 hPa | 0 mm | - | - | - |
| 1778085001 | 18.89° C | 44% | 1017.3 hPa | 0 mm | - | - | - |
| 1778084400 | 18.89° C | 46% | 1017.3 hPa | 0 mm | - | - | - |
| 1778077201 | 14.44° C | 66% | 1017.2 hPa | 0 mm | - | - | - |
| 1778076600 | 13.89° C | 67% | 1017.2 hPa | 0 mm | - | - | - |
| 1778074801 | 12.78° C | 74% | 1017 hPa | 0 mm | - | - | - |
| 1778071201 | 10.56° C | 82% | 1016.5 hPa | 0 mm | - | - | - |
| 1778070601 | 10.56° C | 81% | 1016.4 hPa | 0 mm | - | - | - |
| 1778068800 | 10.56° C | 80% | 1016.2 hPa | 0 mm | - | - | - |
| 1778068199 | 10.56° C | 79% | 1016.1 hPa | 0 mm | - | - | - |
| 1778067599 | 11.11° C | 78% | 1016 hPa | 0 mm | - | - | - |
| 1778066399 | 11.67° C | 75% | 1016 hPa | 0 mm | - | - | - |
| 1778064001 | 13.33° C | 69% | 1015.5 hPa | 0 mm | - | - | - |
| 1778062201 | 15° C | 61% | 1015.2 hPa | 0 mm | - | - | - |
| 1778059801 | 13.89° C | 64% | 1015.2 hPa | 0 mm | - | - | - |
| 1778058001 | 15° C | 61% | 1015.2 hPa | 0 mm | - | - | - |
| 1778057400 | 15° C | 62% | 1015.2 hPa | 0 mm | - | - | - |
| 1778056801 | 15° C | 61% | 1015.2 hPa | 0 mm | - | - | - |
| 1778053201 | 15.56° C | 59% | 1015.4 hPa | 0 mm | - | - | - |
| 1778051401 | 15.56° C | 58% | 1015.2 hPa | 0 mm | - | - | - |
| 1778049601 | 15.56° C | 58% | 1015.2 hPa | 0 mm | - | - | - |
| 1778047801 | 16.11° C | 55% | 1015.1 hPa | 0 mm | - | - | - |
* Rain latest hour (hover to see other rain measurements)
** Current wind speed in m/s (hover to see current wind gust speed)